sensor_id;sensor_type;location;lat;lon;timestamp;P1;durP1;ratioP1;P2;durP2;ratioP2
19205;SDS011;59358;52.134;5.596;2023-07-08T10:23:08;9.45;;;6.68;;
19205;SDS011;59358;52.134;5.596;2023-07-08T10:25:46;8.15;;;6.03;;
19205;SDS011;59358;52.134;5.596;2023-07-08T10:28:23;8.18;;;6.25;;
19205;SDS011;59358;52.134;5.596;2023-07-08T10:31:00;10.05;;;6.45;;
19205;SDS011;59358;52.134;5.596;2023-07-08T10:36:42;13.00;;;6.25;;
19205;SDS011;59358;52.134;5.596;2023-07-08T10:39:22;15.20;;;7.28;;
19205;SDS011;59358;52.134;5.596;2023-07-08T10:42:04;7.50;;;6.72;;
19205;SDS011;59358;52.134;5.596;2023-07-08T10:44:39;8.00;;;6.65;;
19205;SDS011;59358;52.134;5.596;2023-07-08T10:47:15;8.05;;;6.22;;
19205;SDS011;59358;52.134;5.596;2023-07-08T10:49:56;7.55;;;6.25;;
19205;SDS011;59358;52.134;5.596;2023-07-08T10:52:40;8.63;;;6.57;;
19205;SDS011;59358;52.134;5.596;2023-07-08T10:55:20;9.60;;;6.28;;
19205;SDS011;59358;52.134;5.596;2023-07-08T10:58:09;7.32;;;6.55;;
19205;SDS011;59358;52.134;5.596;2023-07-08T11:00:50;13.30;;;7.22;;
19205;SDS011;59358;52.134;5.596;2023-07-08T11:06:26;7.63;;;6.38;;
19205;SDS011;59358;52.134;5.596;2023-07-08T11:09:02;8.25;;;6.93;;
19205;SDS011;59358;52.134;5.596;2023-07-08T11:11:33;8.80;;;6.88;;
19205;SDS011;59358;52.134;5.596;2023-07-08T11:14:09;11.88;;;7.45;;
19205;SDS011;59358;52.134;5.596;2023-07-08T11:16:40;9.93;;;6.82;;
19205;SDS011;59358;52.134;5.596;2023-07-08T11:19:15;9.95;;;7.25;;
19205;SDS011;59358;52.134;5.596;2023-07-08T11:21:48;13.98;;;7.40;;
19205;SDS011;59358;52.134;5.596;2023-07-08T11:24:21;10.48;;;6.97;;
19205;SDS011;59358;52.134;5.596;2023-07-08T11:26:57;9.25;;;7.07;;
19205;SDS011;59358;52.134;5.596;2023-07-08T11:29:32;9.38;;;7.05;;
19205;SDS011;59358;52.134;5.596;2023-07-08T11:32:03;9.77;;;7.07;;
19205;SDS011;59358;52.134;5.596;2023-07-08T11:34:32;11.13;;;6.90;;
19205;SDS011;59358;52.134;5.596;2023-07-08T11:37:00;8.90;;;7.22;;
19205;SDS011;59358;52.134;5.596;2023-07-08T11:39:31;8.70;;;6.93;;
19205;SDS011;59358;52.134;5.596;2023-07-08T11:42:05;10.05;;;7.32;;
19205;SDS011;59358;52.134;5.596;2023-07-08T11:44:41;14.05;;;7.25;;
19205;SDS011;59358;52.134;5.596;2023-07-08T11:47:13;9.75;;;7.18;;
19205;SDS011;59358;52.134;5.596;2023-07-08T11:49:45;9.85;;;6.75;;
19205;SDS011;59358;52.134;5.596;2023-07-08T11:52:16;9.57;;;7.03;;
19205;SDS011;59358;52.134;5.596;2023-07-08T11:54:45;9.05;;;7.13;;
19205;SDS011;59358;52.134;5.596;2023-07-08T11:57:17;7.50;;;6.25;;
19205;SDS011;59358;52.134;5.596;2023-07-08T11:59:55;7.43;;;6.68;;
19205;SDS011;59358;52.134;5.596;2023-07-08T12:02:47;8.70;;;6.90;;
19205;SDS011;59358;52.134;5.596;2023-07-08T12:05:15;8.23;;;7.22;;
19205;SDS011;59358;52.134;5.596;2023-07-08T12:07:44;8.98;;;6.75;;
19205;SDS011;59358;52.134;5.596;2023-07-08T12:10:15;9.85;;;6.70;;
19205;SDS011;59358;52.134;5.596;2023-07-08T12:12:45;10.20;;;7.90;;
19205;SDS011;59358;52.134;5.596;2023-07-08T12:15:15;11.98;;;6.55;;
19205;SDS011;59358;52.134;5.596;2023-07-08T12:17:47;8.13;;;6.53;;
19205;SDS011;59358;52.134;5.596;2023-07-08T12:20:16;14.18;;;7.43;;
19205;SDS011;59358;52.134;5.596;2023-07-08T12:22:50;13.85;;;7.15;;
19205;SDS011;59358;52.134;5.596;2023-07-08T12:25:18;7.97;;;7.13;;
19205;SDS011;59358;52.134;5.596;2023-07-08T12:27:49;10.73;;;6.63;;
19205;SDS011;59358;52.134;5.596;2023-07-08T12:30:16;8.80;;;7.25;;
19205;SDS011;59358;52.134;5.596;2023-07-08T12:32:44;10.93;;;7.10;;
19205;SDS011;59358;52.134;5.596;2023-07-08T12:35:16;7.22;;;6.38;;
19205;SDS011;59358;52.134;5.596;2023-07-08T12:37:47;8.88;;;7.07;;
19205;SDS011;59358;52.134;5.596;2023-07-08T12:40:14;13.93;;;6.65;;
19205;SDS011;59358;52.134;5.596;2023-07-08T12:42:41;10.98;;;7.60;;
19205;SDS011;59358;52.134;5.596;2023-07-08T12:45:16;11.23;;;6.75;;
19205;SDS011;59358;52.134;5.596;2023-07-08T12:47:44;7.90;;;6.30;;
19205;SDS011;59358;52.134;5.596;2023-07-08T12:50:12;11.02;;;6.60;;
19205;SDS011;59358;52.134;5.596;2023-07-08T12:52:39;9.18;;;7.20;;
19205;SDS011;59358;52.134;5.596;2023-07-08T12:55:08;7.68;;;6.15;;
19205;SDS011;59358;52.134;5.596;2023-07-08T12:57:36;9.48;;;6.68;;
19205;SDS011;59358;52.134;5.596;2023-07-08T13:00:04;9.52;;;6.68;;
19205;SDS011;59358;52.134;5.596;2023-07-08T13:02:33;9.77;;;6.45;;
19205;SDS011;59358;52.134;5.596;2023-07-08T13:05:00;11.50;;;6.53;;
19205;SDS011;59358;52.134;5.596;2023-07-08T13:07:32;9.27;;;6.40;;
19205;SDS011;59358;52.134;5.596;2023-07-08T13:10:01;7.50;;;6.40;;
19205;SDS011;59358;52.134;5.596;2023-07-08T13:12:30;8.60;;;6.38;;
19205;SDS011;59358;52.134;5.596;2023-07-08T13:14:59;7.60;;;6.00;;
19205;SDS011;59358;52.134;5.596;2023-07-08T13:17:27;10.20;;;6.80;;
19205;SDS011;59358;52.134;5.596;2023-07-08T13:19:56;9.80;;;6.75;;
19205;SDS011;59358;52.134;5.596;2023-07-08T13:22:24;7.40;;;6.20;;
19205;SDS011;59358;52.134;5.596;2023-07-08T13:24:58;7.57;;;5.82;;
19205;SDS011;59358;52.134;5.596;2023-07-08T13:27:26;7.50;;;6.45;;
19205;SDS011;59358;52.134;5.596;2023-07-08T13:29:53;9.05;;;6.95;;
19205;SDS011;59358;52.134;5.596;2023-07-08T13:32:20;9.52;;;6.50;;
19205;SDS011;59358;52.134;5.596;2023-07-08T13:34:58;12.68;;;9.98;;
19205;SDS011;59358;52.134;5.596;2023-07-08T13:37:24;7.78;;;6.45;;
19205;SDS011;59358;52.134;5.596;2023-07-08T13:39:52;8.90;;;6.88;;
19205;SDS011;59358;52.134;5.596;2023-07-08T13:42:20;6.90;;;6.20;;
19205;SDS011;59358;52.134;5.596;2023-07-08T13:44:47;6.40;;;5.70;;
19205;SDS011;59358;52.134;5.596;2023-07-08T13:47:19;8.55;;;6.03;;
19205;SDS011;59358;52.134;5.596;2023-07-08T13:49:49;7.35;;;5.32;;
19205;SDS011;59358;52.134;5.596;2023-07-08T13:52:24;6.93;;;5.82;;
19205;SDS011;59358;52.134;5.596;2023-07-08T13:54:53;7.57;;;6.10;;
19205;SDS011;59358;52.134;5.596;2023-07-08T13:57:27;8.13;;;6.32;;
19205;SDS011;59358;52.134;5.596;2023-07-08T13:59:57;9.13;;;6.93;;
19205;SDS011;59358;52.134;5.596;2023-07-08T14:02:26;10.52;;;6.55;;
19205;SDS011;59358;52.134;5.596;2023-07-08T14:04:55;8.23;;;6.38;;
19205;SDS011;59358;52.134;5.596;2023-07-08T14:07:25;6.93;;;5.45;;
19205;SDS011;59358;52.134;5.596;2023-07-08T14:09:53;7.30;;;6.40;;
19205;SDS011;59358;52.134;5.596;2023-07-08T14:12:20;8.35;;;5.90;;
19205;SDS011;59358;52.134;5.596;2023-07-08T14:14:47;7.82;;;5.90;;
19205;SDS011;59358;52.134;5.596;2023-07-08T14:17:14;8.25;;;6.35;;
19205;SDS011;59358;52.134;5.596;2023-07-08T14:19:46;9.70;;;6.40;;
19205;SDS011;59358;52.134;5.596;2023-07-08T14:22:19;10.23;;;6.93;;
19205;SDS011;59358;52.134;5.596;2023-07-08T14:24:50;6.18;;;5.43;;
19205;SDS011;59358;52.134;5.596;2023-07-08T14:27:17;8.57;;;6.25;;
19205;SDS011;59358;52.134;5.596;2023-07-08T14:29:46;7.45;;;6.65;;
19205;SDS011;59358;52.134;5.596;2023-07-08T14:32:15;6.47;;;5.32;;
19205;SDS011;59358;52.134;5.596;2023-07-08T14:34:47;7.20;;;5.65;;
19205;SDS011;59358;52.134;5.596;2023-07-08T14:37:17;8.15;;;6.60;;
19205;SDS011;59358;52.134;5.596;2023-07-08T14:39:44;10.05;;;5.60;;
19205;SDS011;59358;52.134;5.596;2023-07-08T14:42:13;7.40;;;6.55;;
19205;SDS011;59358;52.134;5.596;2023-07-08T14:44:42;7.88;;;6.07;;
19205;SDS011;59358;52.134;5.596;2023-07-08T14:47:11;7.18;;;5.72;;
19205;SDS011;59358;52.134;5.596;2023-07-08T14:49:39;6.80;;;5.97;;
19205;SDS011;59358;52.134;5.596;2023-07-08T14:52:06;9.02;;;6.60;;
19205;SDS011;59358;52.134;5.596;2023-07-08T14:54:34;7.20;;;5.95;;
19205;SDS011;59358;52.134;5.596;2023-07-08T14:57:01;8.15;;;5.70;;
19205;SDS011;59358;52.134;5.596;2023-07-08T14:59:31;8.05;;;5.80;;
19205;SDS011;59358;52.134;5.596;2023-07-08T15:02:02;9.48;;;6.22;;
19205;SDS011;59358;52.134;5.596;2023-07-08T15:04:40;9.90;;;6.63;;
19205;SDS011;59358;52.134;5.596;2023-07-08T15:07:08;7.85;;;5.85;;
19205;SDS011;59358;52.134;5.596;2023-07-08T15:09:35;8.88;;;6.88;;
19205;SDS011;59358;52.134;5.596;2023-07-08T15:12:02;9.43;;;7.43;;
19205;SDS011;59358;52.134;5.596;2023-07-08T15:14:30;7.57;;;6.20;;
19205;SDS011;59358;52.134;5.596;2023-07-08T15:16:58;7.32;;;6.45;;
19205;SDS011;59358;52.134;5.596;2023-07-08T15:19:25;7.60;;;6.80;;
19205;SDS011;59358;52.134;5.596;2023-07-08T15:21:53;8.20;;;6.75;;
19205;SDS011;59358;52.134;5.596;2023-07-08T15:24:20;9.75;;;6.85;;
19205;SDS011;59358;52.134;5.596;2023-07-08T15:26:49;11.13;;;7.30;;
19205;SDS011;59358;52.134;5.596;2023-07-08T15:29:17;8.60;;;6.60;;
19205;SDS011;59358;52.134;5.596;2023-07-08T15:31:48;9.68;;;6.03;;
19205;SDS011;59358;52.134;5.596;2023-07-08T15:34:16;8.20;;;6.28;;
19205;SDS011;59358;52.134;5.596;2023-07-08T15:36:44;7.60;;;5.88;;
19205;SDS011;59358;52.134;5.596;2023-07-08T15:39:11;9.02;;;6.30;;
19205;SDS011;59358;52.134;5.596;2023-07-08T15:41:39;10.50;;;7.43;;
19205;SDS011;59358;52.134;5.596;2023-07-08T15:44:07;11.05;;;6.80;;
19205;SDS011;59358;52.134;5.596;2023-07-08T15:46:36;8.63;;;7.00;;
19205;SDS011;59358;52.134;5.596;2023-07-08T15:49:12;8.70;;;6.30;;
19205;SDS011;59358;52.134;5.596;2023-07-08T15:51:40;9.77;;;6.95;;
19205;SDS011;59358;52.134;5.596;2023-07-08T15:54:07;10.77;;;6.82;;
19205;SDS011;59358;52.134;5.596;2023-07-08T15:56:34;10.05;;;6.65;;
19205;SDS011;59358;52.134;5.596;2023-07-08T15:59:03;8.48;;;6.68;;
19205;SDS011;59358;52.134;5.596;2023-07-08T16:01:30;7.65;;;6.57;;
19205;SDS011;59358;52.134;5.596;2023-07-08T16:03:57;12.30;;;6.90;;
19205;SDS011;59358;52.134;5.596;2023-07-08T16:06:26;15.15;;;7.05;;
19205;SDS011;59358;52.134;5.596;2023-07-08T16:08:53;7.72;;;6.25;;
19205;SDS011;59358;52.134;5.596;2023-07-08T16:11:21;9.30;;;7.22;;
19205;SDS011;59358;52.134;5.596;2023-07-08T16:13:52;9.77;;;6.65;;
19205;SDS011;59358;52.134;5.596;2023-07-08T16:16:19;10.00;;;6.93;;
19205;SDS011;59358;52.134;5.596;2023-07-08T16:18:47;7.50;;;6.68;;
19205;SDS011;59358;52.134;5.596;2023-07-08T16:21:14;8.73;;;7.45;;
19205;SDS011;59358;52.134;5.596;2023-07-08T16:23:43;14.40;;;8.43;;
19205;SDS011;59358;52.134;5.596;2023-07-08T16:26:10;8.75;;;7.25;;
19205;SDS011;59358;52.134;5.596;2023-07-08T16:28:41;11.20;;;8.63;;
19205;SDS011;59358;52.134;5.596;2023-07-08T16:31:10;9.32;;;6.80;;
19205;SDS011;59358;52.134;5.596;2023-07-08T16:33:37;12.73;;;7.22;;
19205;SDS011;59358;52.134;5.596;2023-07-08T16:36:04;10.68;;;7.78;;
19205;SDS011;59358;52.134;5.596;2023-07-08T16:38:31;7.45;;;6.65;;
19205;SDS011;59358;52.134;5.596;2023-07-08T16:41:00;10.82;;;8.82;;
19205;SDS011;59358;52.134;5.596;2023-07-08T16:43:27;10.43;;;7.15;;
19205;SDS011;59358;52.134;5.596;2023-07-08T16:45:59;12.43;;;8.55;;
19205;SDS011;59358;52.134;5.596;2023-07-08T16:48:26;8.63;;;7.63;;
19205;SDS011;59358;52.134;5.596;2023-07-08T16:50:53;15.38;;;8.80;;
19205;SDS011;59358;52.134;5.596;2023-07-08T16:53:20;9.15;;;6.78;;
19205;SDS011;59358;52.134;5.596;2023-07-08T16:55:47;9.15;;;6.90;;
19205;SDS011;59358;52.134;5.596;2023-07-08T16:58:15;8.25;;;6.45;;
19205;SDS011;59358;52.134;5.596;2023-07-08T17:00:43;8.57;;;6.10;;
19205;SDS011;59358;52.134;5.596;2023-07-08T17:03:12;10.60;;;6.05;;
19205;SDS011;59358;52.134;5.596;2023-07-08T17:05:42;8.20;;;6.53;;
19205;SDS011;59358;52.134;5.596;2023-07-08T17:08:10;8.90;;;7.13;;
19205;SDS011;59358;52.134;5.596;2023-07-08T17:10:38;7.43;;;6.43;;
19205;SDS011;59358;52.134;5.596;2023-07-08T17:13:05;8.55;;;6.68;;
19205;SDS011;59358;52.134;5.596;2023-07-08T17:15:34;11.38;;;7.57;;
19205;SDS011;59358;52.134;5.596;2023-07-08T17:18:01;9.85;;;7.68;;
19205;SDS011;59358;52.134;5.596;2023-07-08T17:20:30;9.27;;;7.35;;
19205;SDS011;59358;52.134;5.596;2023-07-08T17:22:59;9.20;;;6.78;;
19205;SDS011;59358;52.134;5.596;2023-07-08T17:25:26;9.35;;;7.13;;
19205;SDS011;59358;52.134;5.596;2023-07-08T17:27:54;9.57;;;7.00;;
19205;SDS011;59358;52.134;5.596;2023-07-08T17:30:22;8.48;;;5.93;;
19205;SDS011;59358;52.134;5.596;2023-07-08T17:32:51;7.22;;;6.47;;
19205;SDS011;59358;52.134;5.596;2023-07-08T17:35:20;11.40;;;6.70;;
19205;SDS011;59358;52.134;5.596;2023-07-08T17:37:48;7.57;;;6.55;;
19205;SDS011;59358;52.134;5.596;2023-07-08T17:40:15;10.23;;;7.20;;
19205;SDS011;59358;52.134;5.596;2023-07-08T17:42:44;10.77;;;7.35;;
19205;SDS011;59358;52.134;5.596;2023-07-08T17:45:11;15.30;;;7.75;;
19205;SDS011;59358;52.134;5.596;2023-07-08T17:47:39;12.00;;;7.50;;
19205;SDS011;59358;52.134;5.596;2023-07-08T17:50:18;11.05;;;6.95;;
19205;SDS011;59358;52.134;5.596;2023-07-08T17:52:47;10.35;;;6.95;;
19205;SDS011;59358;52.134;5.596;2023-07-08T17:55:14;9.75;;;7.40;;
19205;SDS011;59358;52.134;5.596;2023-07-08T17:57:42;8.93;;;6.88;;
19205;SDS011;59358;52.134;5.596;2023-07-08T18:00:14;9.38;;;6.68;;
19205;SDS011;59358;52.134;5.596;2023-07-08T18:02:44;8.70;;;7.80;;
19205;SDS011;59358;52.134;5.596;2023-07-08T18:05:12;7.53;;;6.70;;
19205;SDS011;59358;52.134;5.596;2023-07-08T18:07:42;9.00;;;7.75;;
19205;SDS011;59358;52.134;5.596;2023-07-08T18:10:10;10.32;;;8.05;;
19205;SDS011;59358;52.134;5.596;2023-07-08T18:12:36;10.02;;;7.13;;
19205;SDS011;59358;52.134;5.596;2023-07-08T18:15:10;11.63;;;8.02;;
19205;SDS011;59358;52.134;5.596;2023-07-08T18:17:43;12.50;;;7.15;;
19205;SDS011;59358;52.134;5.596;2023-07-08T18:20:10;8.75;;;7.55;;
19205;SDS011;59358;52.134;5.596;2023-07-08T18:22:38;10.65;;;7.28;;
19205;SDS011;59358;52.134;5.596;2023-07-08T18:25:12;11.15;;;7.47;;
19205;SDS011;59358;52.134;5.596;2023-07-08T18:27:40;8.73;;;6.57;;
19205;SDS011;59358;52.134;5.596;2023-07-08T18:30:09;9.00;;;6.47;;
19205;SDS011;59358;52.134;5.596;2023-07-08T18:32:37;12.18;;;7.22;;
19205;SDS011;59358;52.134;5.596;2023-07-08T18:35:11;9.85;;;6.75;;
19205;SDS011;59358;52.134;5.596;2023-07-08T18:37:41;11.30;;;7.18;;
19205;SDS011;59358;52.134;5.596;2023-07-08T18:40:10;9.65;;;7.32;;
19205;SDS011;59358;52.134;5.596;2023-07-08T18:42:40;11.40;;;7.00;;
19205;SDS011;59358;52.134;5.596;2023-07-08T18:45:10;10.15;;;7.03;;
19205;SDS011;59358;52.134;5.596;2023-07-08T18:47:42;9.73;;;7.03;;
19205;SDS011;59358;52.134;5.596;2023-07-08T18:50:09;11.75;;;7.10;;
19205;SDS011;59358;52.134;5.596;2023-07-08T18:52:36;10.82;;;6.28;;
19205;SDS011;59358;52.134;5.596;2023-07-08T18:55:04;10.43;;;7.10;;
19205;SDS011;59358;52.134;5.596;2023-07-08T18:57:33;12.90;;;6.97;;
19205;SDS011;59358;52.134;5.596;2023-07-08T19:00:00;13.20;;;7.28;;
19205;SDS011;59358;52.134;5.596;2023-07-08T19:02:30;13.25;;;7.68;;
19205;SDS011;59358;52.134;5.596;2023-07-08T19:05:00;14.88;;;9.35;;
19205;SDS011;59358;52.134;5.596;2023-07-08T19:07:27;17.23;;;9.90;;
19205;SDS011;59358;52.134;5.596;2023-07-08T19:09:54;10.88;;;6.90;;
19205;SDS011;59358;52.134;5.596;2023-07-08T19:12:23;9.23;;;7.05;;
19205;SDS011;59358;52.134;5.596;2023-07-08T19:14:51;10.73;;;7.68;;
19205;SDS011;59358;52.134;5.596;2023-07-08T19:17:18;11.27;;;7.60;;
19205;SDS011;59358;52.134;5.596;2023-07-08T19:19:45;11.65;;;7.25;;
19205;SDS011;59358;52.134;5.596;2023-07-08T19:22:13;12.10;;;8.07;;
19205;SDS011;59358;52.134;5.596;2023-07-08T19:24:41;12.57;;;7.50;;
19205;SDS011;59358;52.134;5.596;2023-07-08T19:27:12;8.60;;;7.13;;
19205;SDS011;59358;52.134;5.596;2023-07-08T19:29:41;12.27;;;8.18;;
19205;SDS011;59358;52.134;5.596;2023-07-08T19:32:10;12.57;;;7.22;;
19205;SDS011;59358;52.134;5.596;2023-07-08T19:34:39;10.95;;;7.53;;
19205;SDS011;59358;52.134;5.596;2023-07-08T19:37:09;10.23;;;7.13;;
19205;SDS011;59358;52.134;5.596;2023-07-08T19:39:40;11.10;;;7.65;;
19205;SDS011;59358;52.134;5.596;2023-07-08T19:42:08;12.38;;;6.70;;
19205;SDS011;59358;52.134;5.596;2023-07-08T19:44:39;10.40;;;7.30;;
19205;SDS011;59358;52.134;5.596;2023-07-08T19:47:07;10.13;;;7.05;;
19205;SDS011;59358;52.134;5.596;2023-07-08T19:49:37;9.35;;;7.38;;
19205;SDS011;59358;52.134;5.596;2023-07-08T19:52:04;9.65;;;7.13;;
19205;SDS011;59358;52.134;5.596;2023-07-08T19:54:32;8.90;;;6.50;;
19205;SDS011;59358;52.134;5.596;2023-07-08T19:56:59;9.80;;;7.53;;
19205;SDS011;59358;52.134;5.596;2023-07-08T19:59:26;11.85;;;7.30;;
19205;SDS011;59358;52.134;5.596;2023-07-08T20:01:54;10.85;;;7.38;;
19205;SDS011;59358;52.134;5.596;2023-07-08T20:04:25;9.30;;;7.25;;
19205;SDS011;59358;52.134;5.596;2023-07-08T20:06:52;9.00;;;7.30;;
19205;SDS011;59358;52.134;5.596;2023-07-08T20:09:20;9.95;;;7.20;;
19205;SDS011;59358;52.134;5.596;2023-07-08T20:11:49;12.70;;;7.53;;
19205;SDS011;59358;52.134;5.596;2023-07-08T20:14:16;11.27;;;6.80;;
19205;SDS011;59358;52.134;5.596;2023-07-08T20:16:42;11.25;;;7.00;;
19205;SDS011;59358;52.134;5.596;2023-07-08T20:19:19;9.88;;;7.68;;
19205;SDS011;59358;52.134;5.596;2023-07-08T20:21:50;13.27;;;7.95;;
19205;SDS011;59358;52.134;5.596;2023-07-08T20:24:16;9.55;;;7.55;;
19205;SDS011;59358;52.134;5.596;2023-07-08T20:26:43;11.63;;;7.45;;
19205;SDS011;59358;52.134;5.596;2023-07-08T20:29:13;10.02;;;8.00;;
19205;SDS011;59358;52.134;5.596;2023-07-08T20:31:42;9.63;;;7.50;;
19205;SDS011;59358;52.134;5.596;2023-07-08T20:34:10;11.23;;;7.63;;
19205;SDS011;59358;52.134;5.596;2023-07-08T20:36:39;11.23;;;7.85;;
19205;SDS011;59358;52.134;5.596;2023-07-08T20:39:08;10.93;;;7.75;;
19205;SDS011;59358;52.134;5.596;2023-07-08T20:41:37;12.68;;;8.25;;
19205;SDS011;59358;52.134;5.596;2023-07-08T20:44:04;11.45;;;7.70;;
19205;SDS011;59358;52.134;5.596;2023-07-08T20:46:31;10.32;;;7.88;;
19205;SDS011;59358;52.134;5.596;2023-07-08T20:48:58;10.15;;;7.53;;
19205;SDS011;59358;52.134;5.596;2023-07-08T20:51:27;11.32;;;7.75;;
19205;SDS011;59358;52.134;5.596;2023-07-08T20:53:55;10.82;;;7.57;;
19205;SDS011;59358;52.134;5.596;2023-07-08T20:56:26;14.45;;;9.60;;
19205;SDS011;59358;52.134;5.596;2023-07-08T20:58:55;10.63;;;8.20;;
19205;SDS011;59358;52.134;5.596;2023-07-08T21:01:22;13.77;;;8.68;;
19205;SDS011;59358;52.134;5.596;2023-07-08T21:03:51;13.30;;;8.40;;
19205;SDS011;59358;52.134;5.596;2023-07-08T21:06:19;12.52;;;8.68;;
19205;SDS011;59358;52.134;5.596;2023-07-08T21:08:47;14.00;;;9.05;;
19205;SDS011;59358;52.134;5.596;2023-07-08T21:11:15;14.10;;;9.68;;
19205;SDS011;59358;52.134;5.596;2023-07-08T21:13:44;16.48;;;10.70;;
19205;SDS011;59358;52.134;5.596;2023-07-08T21:16:13;13.82;;;10.88;;
19205;SDS011;59358;52.134;5.596;2023-07-08T21:21:34;17.27;;;10.70;;
19205;SDS011;59358;52.134;5.596;2023-07-08T21:24:01;15.85;;;10.85;;
19205;SDS011;59358;52.134;5.596;2023-07-08T21:26:28;17.55;;;12.20;;
19205;SDS011;59358;52.134;5.596;2023-07-08T21:28:58;18.73;;;11.60;;
19205;SDS011;59358;52.134;5.596;2023-07-08T21:31:26;16.60;;;10.98;;
19205;SDS011;59358;52.134;5.596;2023-07-08T21:33:54;16.25;;;11.63;;
19205;SDS011;59358;52.134;5.596;2023-07-08T21:36:21;17.50;;;11.57;;
19205;SDS011;59358;52.134;5.596;2023-07-08T21:38:50;15.60;;;11.73;;
19205;SDS011;59358;52.134;5.596;2023-07-08T21:41:18;18.33;;;11.77;;
19205;SDS011;59358;52.134;5.596;2023-07-08T21:43:45;18.35;;;12.90;;
19205;SDS011;59358;52.134;5.596;2023-07-08T21:46:14;19.40;;;12.73;;
19205;SDS011;59358;52.134;5.596;2023-07-08T21:48:40;15.85;;;11.75;;
19205;SDS011;59358;52.134;5.596;2023-07-08T21:51:10;20.13;;;12.30;;
19205;SDS011;59358;52.134;5.596;2023-07-08T21:53:43;15.30;;;11.63;;
19205;SDS011;59358;52.134;5.596;2023-07-08T21:56:13;14.40;;;10.82;;
19205;SDS011;59358;52.134;5.596;2023-07-08T21:58:40;15.10;;;10.63;;
19205;SDS011;59358;52.134;5.596;2023-07-08T22:01:09;16.70;;;11.40;;
19205;SDS011;59358;52.134;5.596;2023-07-08T22:03:43;19.83;;;12.70;;
19205;SDS011;59358;52.134;5.596;2023-07-08T22:06:11;19.75;;;12.48;;
19205;SDS011;59358;52.134;5.596;2023-07-08T22:08:38;15.00;;;10.77;;
19205;SDS011;59358;52.134;5.596;2023-07-08T22:11:08;16.13;;;12.43;;
19205;SDS011;59358;52.134;5.596;2023-07-08T22:13:39;17.67;;;11.95;;
19205;SDS011;59358;52.134;5.596;2023-07-08T22:16:06;16.48;;;11.95;;
19205;SDS011;59358;52.134;5.596;2023-07-08T22:18:37;15.15;;;11.65;;
19205;SDS011;59358;52.134;5.596;2023-07-08T22:21:08;14.55;;;11.25;;
19205;SDS011;59358;52.134;5.596;2023-07-08T22:23:40;16.35;;;12.52;;
19205;SDS011;59358;52.134;5.596;2023-07-08T22:26:07;17.25;;;12.43;;
19205;SDS011;59358;52.134;5.596;2023-07-08T22:28:34;17.48;;;11.60;;
19205;SDS011;59358;52.134;5.596;2023-07-08T22:31:01;22.33;;;13.80;;
19205;SDS011;59358;52.134;5.596;2023-07-08T22:33:28;21.35;;;12.68;;
19205;SDS011;59358;52.134;5.596;2023-07-08T22:35:57;15.55;;;12.27;;
19205;SDS011;59358;52.134;5.596;2023-07-08T22:38:24;18.00;;;12.85;;
19205;SDS011;59358;52.134;5.596;2023-07-08T22:40:51;16.10;;;13.40;;
19205;SDS011;59358;52.134;5.596;2023-07-08T22:43:20;16.77;;;13.45;;
19205;SDS011;59358;52.134;5.596;2023-07-08T22:45:51;19.58;;;14.93;;
19205;SDS011;59358;52.134;5.596;2023-07-08T22:48:18;15.02;;;13.13;;
19205;SDS011;59358;52.134;5.596;2023-07-08T22:50:45;18.42;;;14.63;;
19205;SDS011;59358;52.134;5.596;2023-07-08T22:53:16;19.25;;;14.35;;
19205;SDS011;59358;52.134;5.596;2023-07-08T22:55:45;21.45;;;15.43;;
19205;SDS011;59358;52.134;5.596;2023-07-08T22:58:17;19.27;;;15.70;;
19205;SDS011;59358;52.134;5.596;2023-07-08T23:00:46;21.85;;;15.88;;
19205;SDS011;59358;52.134;5.596;2023-07-08T23:03:12;19.52;;;15.95;;
19205;SDS011;59358;52.134;5.596;2023-07-08T23:05:39;17.92;;;13.93;;
19205;SDS011;59358;52.134;5.596;2023-07-08T23:08:10;22.77;;;16.20;;
19205;SDS011;59358;52.134;5.596;2023-07-08T23:10:40;21.95;;;15.98;;
19205;SDS011;59358;52.134;5.596;2023-07-08T23:13:09;21.05;;;15.55;;
19205;SDS011;59358;52.134;5.596;2023-07-08T23:15:42;20.65;;;16.58;;
19205;SDS011;59358;52.134;5.596;2023-07-08T23:18:10;26.05;;;16.95;;
19205;SDS011;59358;52.134;5.596;2023-07-08T23:20:41;20.92;;;16.80;;
19205;SDS011;59358;52.134;5.596;2023-07-08T23:23:08;22.40;;;15.77;;
19205;SDS011;59358;52.134;5.596;2023-07-08T23:25:35;18.20;;;14.88;;
19205;SDS011;59358;52.134;5.596;2023-07-08T23:28:04;23.38;;;16.60;;
19205;SDS011;59358;52.134;5.596;2023-07-08T23:30:31;20.30;;;15.93;;
19205;SDS011;59358;52.134;5.596;2023-07-08T23:32:57;18.60;;;15.75;;
19205;SDS011;59358;52.134;5.596;2023-07-08T23:35:24;27.52;;;16.95;;
19205;SDS011;59358;52.134;5.596;2023-07-08T23:37:51;23.10;;;17.67;;
19205;SDS011;59358;52.134;5.596;2023-07-08T23:40:22;22.40;;;18.30;;
19205;SDS011;59358;52.134;5.596;2023-07-08T23:42:49;25.80;;;18.48;;
19205;SDS011;59358;52.134;5.596;2023-07-08T23:45:17;25.17;;;18.33;;
19205;SDS011;59358;52.134;5.596;2023-07-08T23:47:44;25.63;;;18.85;;
19205;SDS011;59358;52.134;5.596;2023-07-08T23:50:14;27.73;;;18.45;;
19205;SDS011;59358;52.134;5.596;2023-07-08T23:52:43;20.33;;;16.95;;
19205;SDS011;59358;52.134;5.596;2023-07-08T23:55:10;22.88;;;16.45;;
19205;SDS011;59358;52.134;5.596;2023-07-08T23:57:38;21.85;;;18.00;;
